• Join FlightAware (Why Join?)
  • Login
  • US Flag 
12:47PM EDT


 

Airport Tracker/Info


-or-


 

Live Flight TrackerFlight Track Log ✈ AWE3827 ✈ 19-Apr-2013 ✈ KCLT - KBNA

Flight Track Log - Related Links

Times and Time Zones

All times are in EDT time to prevent confusion due to time zone crossing. See the AWE3827 flight status page for this flight to view local times or setup timezone preferences in your user account.

Time Position Orientation Groundspeed Altitude Reporting Facility
EDT Latitude Longitude Course Direction KTS MPH feet Rate Location/Type
08:10AM 35.1867 -80.9492 175° South 148 170 2,100  Level FAA TRACON SMA TRACON (SMA)
08:10AM 35.1706 -80.9475 175° South 153 176 2,800 1,920 Climbing FAA TRACON SMA TRACON (SMA)
08:10AM 35.1558 -80.9489 184° South 170 196 3,400 1,800 Climbing FAA TRACON SMA TRACON (SMA)
08:11AM 35.1425 -80.9561 204° Southwest 181 208 4,000 1,740 Climbing FAA TRACON SMA TRACON (SMA)
08:11AM 35.1319 -80.9786 240° Southwest 208 239 4,600 1,740 Climbing FAA TRACON SMA TRACON (SMA)
08:11AM 35.1294 -81.0025 263° West 231 266 5,200 2,100 Climbing FAA TRACON SMA TRACON (SMA)
08:12AM 35.1300 -81.0281 272° West 238 274 6,000 2,700 Climbing FAA TRACON SMA TRACON (SMA)
08:12AM 35.1303 -81.0603 271° West 246 283 7,000 2,520 Climbing FAA TRACON SMA TRACON (SMA)
08:12AM 35.1306 -81.0867 271° West 248 285 7,700 1,920 Climbing FAA TRACON SMA TRACON (SMA)
08:13AM 35.1311 -81.1128 271° West 250 288 8,300 2,520 Climbing FAA TRACON SMA TRACON (SMA)
08:13AM 35.1311 -81.1464 270° West 253 291 9,400 3,120 Climbing FAA TRACON SMA TRACON (SMA)
08:13AM 35.1314 -81.1731 271° West 253 291 10,400 2,220 Climbing FAA TRACON SMA TRACON (SMA)
08:14AM 35.1317 -81.1964 271° West 252 290 10,900 1,620 Climbing FAA TRACON SMA TRACON (SMA)
08:14AM 35.1322 -81.2331 271° West 257 296 11,500 1,020 Climbing FAA TRACON SMA TRACON (SMA)
08:14AM 35.1328 -81.2642 271° West 306 352 11,600 720 Climbing FAA TRACON SMA TRACON (SMA)
08:15AM 35.1331 -81.2964 271° West 311 358 12,000 1,620 Climbing FAA TRACON SMA TRACON (SMA)
08:15AM 35.1339 -81.3372 271° West 311 358 12,700 2,400 Climbing FAA TRACON SMA TRACON (SMA)
08:15AM 35.1347 -81.3697 272° West 311 358 13,600 1,920 Climbing FAA TRACON SMA TRACON (SMA)
08:16AM 35.1350 -81.4014 271° West 307 353 14,000 600 Climbing FAA TRACON SMA TRACON (SMA)
08:16AM 35.1356 -81.4411 271° West 305 351 14,000  Level FAA TRACON SMA TRACON (SMA)
08:16AM 35.1367 -81.4711 273° West 305 351 14,000 120 Level FAA TRACON SMA TRACON (SMA)
08:17AM 35.1358 -81.5053 268° West 308 354 14,100 300 Climbing FAA TRACON SMA TRACON (SMA)
08:17AM 35.1361 -81.5389 271° West 314 361 14,200 1,020 Climbing FAA TRACON SMA TRACON (SMA)
08:17AM 35.1367 -81.5817 271° West 323 372 14,800 1,500 Climbing FAA TRACON SMA TRACON (SMA)
08:18AM 35.1369 -81.6164 271° West 327 376 15,200 1,320 Climbing FAA TRACON SMA TRACON (SMA)
08:18AM 35.1392 -81.6592 274° West 331 381 15,700 1,500 Climbing FAA TRACON SMA TRACON (SMA)
08:18AM 35.1350 -81.6944 262° West 329 379 16,200 1,200 Climbing FAA TRACON SMA TRACON (SMA)
08:19AM 35.1319 -81.7289 264° West 333 383 16,500 720 Climbing FAA TRACON SMA TRACON (SMA)
08:19AM 35.1289 -81.7642 264° West 337 388 16,700 1,020 Climbing FAA TRACON SMA TRACON (SMA)
08:19AM 35.1250 -81.8092 264° West 343 395 17,200 1,260 Climbing FAA TRACON SMA TRACON (SMA)
08:20AM 35.1228 -81.8453 266° West 347 399 17,600 1,200 Climbing FAA TRACON SMA TRACON (SMA)
08:20AM 35.1192 -81.8811 263° West 346 398 18,000 1,320 Climbing FAA TRACON SMA TRACON (SMA)
08:20AM 35.1156 -81.9264 264° West 347 399 18,500 1,500 Climbing FAA TRACON SMA TRACON (SMA)
08:21AM 35.1128 -81.9625 265° West 347 399 19,000 1,320 Climbing FAA TRACON SMA TRACON (SMA)
08:21AM 35.1103 -81.9983 265° West 346 398 19,400 1,500 Climbing FAA TRACON SMA TRACON (SMA)
08:21AM 35.1069 -82.0431 265° West 344 396 20,000 1,200 Climbing FAA TRACON SMA TRACON (SMA)
08:22AM 35.1033 -82.0786 263° West 344 396 20,200 180 Climbing FAA TRACON SMA TRACON (SMA)
08:22AM 35.1033 -82.0786 345° North 344 396 20,200 720 Level FAA TRACON SMA TRACON (SMA)
08:23AM 35.0944 -82.2794 267° West 347 399 21,600 960 Climbing Atlanta Center
08:24AM 35.1503 -82.3953 301° West 347 399 22,300 660 Climbing Atlanta Center
08:25AM 35.2122 -82.5161 302° West 375 432 23,000 600 Climbing Atlanta Center
08:26AM 35.2636 -82.6117 303° West 380 437 23,500 600 Climbing Atlanta Center
08:27AM 35.3211 -82.7178 304° West 380 437 24,300 780 Climbing Atlanta Center
08:28AM 35.3744 -82.8339 299° West 380 437 25,100 840 Climbing Atlanta Center
08:29AM 35.4361 -82.9556 302° West 385 443 26,000 420 Climbing Atlanta Center
08:30AM 35.4911 -83.0669 301° West 385 443 26,000  Level Atlanta Center
08:31AM 35.5461 -83.1761 302° West 379 436 26,000  Level Atlanta Center
08:32AM 35.6033 -83.2828 303° West 379 436 26,000  Level Atlanta Center
08:33AM 35.6561 -83.3894 301° West 379 436 26,000  Level Atlanta Center
08:34AM 35.7086 -83.5017 300° West 379 436 26,000 -300 Level Atlanta Center
08:35AM 35.7633 -83.6089 302° West 379 436 25,500 -960 Descending Atlanta Center
08:36AM 35.8181 -83.7211 301° West 379 436 24,100 -780 Descending Atlanta Center
08:37AM 35.8725 -83.8311 301° West 384 442 24,000 -180 Descending Atlanta Center
08:38AM 35.9206 -83.9414 298° West 379 436 23,800 -540 Descending Atlanta Center
08:39AM 35.9603 -84.0619 292° West 369 425 23,000 -420 Descending Atlanta Center
08:40AM 35.9978 -84.1722 293° West 359 413 23,000  Level Atlanta Center
08:41AM 35.9725 -84.2775 254° West 319 367 23,000  Level Atlanta Center
08:42AM 35.9389 -84.3825 248° West 319 367 23,000  Level Atlanta Center
08:43AM 35.9072 -84.4875 250° West 319 367 23,000  Level Atlanta Center
08:44AM 35.8736 -84.5922 248° West 325 374 23,000  Level Atlanta Center
08:45AM 35.8417 -84.6969 249° West 330 380 23,000 -180 Level Atlanta Center
08:46AM 35.8097 -84.8019 249° West 330 380 22,700 -840 Descending Atlanta Center
08:48AM 35.7594 -84.9542 248° West 330 380 20,900 -1,080 Descending Memphis Center
08:49AM 35.7303 -85.0508 250° West 313 360 20,000 -480 Descending Memphis Center
08:50AM 35.7008 -85.1447 249° West 306 352 20,000  Level Memphis Center
08:51AM 35.6756 -85.2383 252° West 295 339 20,000  Level Memphis Center
08:52AM 35.6586 -85.3339 258° West 295 339 20,000  Level Memphis Center
08:53AM 35.6500 -85.4314 264° West 290 334 20,000  Level Memphis Center
08:54AM 35.6542 -85.5383 273° West 296 341 20,000 -120 Level Memphis Center
08:55AM 35.6561 -85.6431 271° West 307 353 19,800 -900 Descending Memphis Center
08:56AM 35.6578 -85.7428 271° West 307 353 18,300 -1,500 Descending Memphis Center
08:57AM 35.6589 -85.8319 271° West 288 331 16,800 -1,500 Descending Memphis Center
08:58AM 35.6644 -85.9236 274° West 269 310 15,400 -1,440 Descending Memphis Center
08:59AM 35.6656 -86.0208 271° West 279 321 14,000 -1,440 Descending Memphis Center
09:00AM 35.7003 -86.1186 294° West 279 321 12,600 -1,440 Descending Memphis Center
09:01AM 35.7594 -86.1975 313° West 293 337 11,200 -1,560 Descending Memphis Center
09:02AM 35.8056 -86.2719 307° West 298 343 9,500 -1,980 Descending Memphis Center
09:03AM 35.8475 -86.3414 307° West 272 313 7,300 -1,980 Descending Memphis Center
09:04AM 35.8814 -86.4192 298° West 258 297 5,600 -1,800 Descending Memphis Center
09:05AM 35.9108 -86.4997 294° West 252 290 3,800 -1,500 Descending Memphis Center
09:06AM 35.9381 -86.5731 295° West 245 282 2,700 -660 Descending Memphis Center
09:07AM 35.9611 -86.6386 294° West 227 261 2,500 -240 Descending Memphis Center